createdAt,value
2022-11-19T00:01:26.596Z,100415.84
2022-11-19T00:03:53.598Z,100412.72
2022-11-19T00:06:27.619Z,100423.81
2022-11-19T00:08:54.816Z,100415.78
2022-11-19T00:11:45.154Z,100420.41
2022-11-19T00:14:13.877Z,100409.41
2022-11-19T00:16:41.097Z,100406.53
2022-11-19T00:19:07.897Z,100406.59
2022-11-19T00:21:34.858Z,100409.78
2022-11-19T00:24:01.879Z,100408.31
2022-11-19T00:26:28.566Z,100413.47
2022-11-19T00:28:55.479Z,100417.00
2022-11-19T00:31:22.555Z,100421.34
2022-11-19T00:33:50.671Z,100421.47
2022-11-19T00:36:17.472Z,100420.09
2022-11-19T00:38:44.252Z,100424.38
2022-11-19T00:41:10.976Z,100429.97
2022-11-19T00:43:50.056Z,100428.13
2022-11-19T00:46:27.458Z,100430.47
2022-11-19T00:48:56.298Z,100429.91
2022-11-19T00:51:25.007Z,100433.75
2022-11-19T00:53:51.879Z,100436.91
2022-11-19T00:56:20.572Z,100452.31
2022-11-19T00:58:48.298Z,100454.25
2022-11-19T01:01:17.700Z,100451.09
2022-11-19T01:03:47.691Z,100462.50
2022-11-19T01:06:19.090Z,100457.91
2022-11-19T01:08:48.482Z,100456.38
2022-11-19T01:11:18.592Z,100453.47
2022-11-19T01:13:45.824Z,100465.13
2022-11-19T01:16:39.997Z,100460.28
2022-11-19T01:19:08.901Z,100461.47
2022-11-19T01:21:36.620Z,100462.16
2022-11-19T01:24:04.520Z,100465.88
2022-11-19T01:26:31.584Z,100459.59
2022-11-19T01:28:58.546Z,100467.13
2022-11-19T01:31:27.751Z,100464.97
2022-11-19T01:33:55.205Z,100462.66
2022-11-19T01:36:27.557Z,100469.44
2022-11-19T01:38:55.277Z,100462.53
2022-11-19T01:41:25.769Z,100465.13
2022-11-19T01:43:56.023Z,100470.63
2022-11-19T01:46:24.973Z,100473.91
2022-11-19T01:48:55.195Z,100469.44
2022-11-19T01:51:27.862Z,100467.16
2022-11-19T01:54:00.630Z,100466.59
2022-11-19T01:56:29.053Z,100463.69
2022-11-19T01:59:00.855Z,100466.78
2022-11-19T02:01:28.867Z,100464.38
2022-11-19T02:03:55.702Z,100466.59
2022-11-19T02:06:22.473Z,100473.78
2022-11-19T02:08:53.124Z,100471.13
2022-11-19T02:11:41.334Z,100479.13
2022-11-19T02:14:22.649Z,100480.47
2022-11-19T02:17:19.057Z,100486.69
2022-11-19T02:20:19.605Z,100489.00
2022-11-19T02:23:39.570Z,100499.22
2022-11-19T02:26:34.802Z,100496.72
2022-11-19T02:29:07.193Z,100502.41
2022-11-19T02:31:47.561Z,100499.78
2022-11-19T02:34:33.872Z,100500.34
2022-11-19T02:37:08.178Z,100495.28
2022-11-19T02:39:41.105Z,100493.38
2022-11-19T02:42:18.912Z,100497.63
2022-11-19T02:44:58.896Z,100511.47
2022-11-19T02:47:45.374Z,100513.00
2022-11-19T02:50:19.860Z,100511.81
2022-11-19T02:52:48.074Z,100512.41
2022-11-19T02:55:17.617Z,100496.88
2022-11-19T02:57:50.768Z,100506.78
2022-11-19T03:00:36.654Z,100509.19
2022-11-19T03:03:29.044Z,100500.84
2022-11-19T03:06:11.842Z,100507.81
2022-11-19T03:08:38.790Z,100511.97
2022-11-19T03:11:15.789Z,100507.03
2022-11-19T03:14:10.244Z,100513.72
2022-11-19T03:16:43.190Z,100518.09
2022-11-19T03:19:25.031Z,100516.75
2022-11-19T03:21:57.676Z,100511.63
2022-11-19T03:24:31.281Z,100514.72
2022-11-19T03:27:17.071Z,100521.56
2022-11-19T03:29:47.668Z,100514.91
2022-11-19T03:32:19.234Z,100526.41
2022-11-19T03:34:50.886Z,100529.41
2022-11-19T03:37:22.340Z,100538.38
2022-11-19T03:39:51.466Z,100546.72
2022-11-19T03:42:20.230Z,100538.06
2022-11-19T03:44:54.491Z,100549.59
2022-11-19T03:47:41.620Z,100541.69
2022-11-19T03:50:21.642Z,100538.53
2022-11-19T03:52:48.330Z,100537.00
2022-11-19T03:55:16.273Z,100542.03
2022-11-19T03:57:43.395Z,100544.78
2022-11-19T04:00:10.731Z,100543.25
2022-11-19T04:02:41.760Z,100546.63
2022-11-19T04:05:09.522Z,100541.59
2022-11-19T04:07:36.124Z,100548.00
2022-11-19T04:10:03.506Z,100547.38
2022-11-19T04:12:30.033Z,100547.97
2022-11-19T04:14:56.609Z,100546.47
2022-11-19T04:17:23.326Z,100542.88
2022-11-19T04:19:49.919Z,100540.72
2022-11-19T04:22:16.497Z,100541.44
2022-11-19T04:24:43.058Z,100540.41
2022-11-19T04:27:09.651Z,100541.25
2022-11-19T04:29:36.827Z,100547.66
2022-11-19T04:32:03.489Z,100544.41
2022-11-19T04:34:30.342Z,100543.38
2022-11-19T04:36:56.930Z,100530.59
2022-11-19T04:39:23.928Z,100533.03
2022-11-19T04:41:50.479Z,100537.03
2022-11-19T04:44:17.046Z,100530.56
2022-11-19T04:46:43.700Z,100530.09
2022-11-19T04:49:10.263Z,100535.03
2022-11-19T04:51:36.827Z,100535.31
2022-11-19T04:54:03.817Z,100531.66
2022-11-19T04:56:30.416Z,100527.22
2022-11-19T04:58:57.059Z,100527.41
2022-11-19T05:01:23.688Z,100529.78
2022-11-19T05:03:50.637Z,100539.69
2022-11-19T05:06:17.341Z,100534.28
2022-11-19T05:08:43.945Z,100546.66
2022-11-19T05:11:10.599Z,100542.59
2022-11-19T05:13:37.137Z,100547.81
2022-11-19T05:16:03.956Z,100535.19
2022-11-19T05:18:30.516Z,100540.63
2022-11-19T05:20:57.226Z,100540.06
2022-11-19T05:23:24.633Z,100543.63
2022-11-19T05:25:51.792Z,100539.00
2022-11-19T05:28:18.551Z,100547.44
2022-11-19T05:30:45.213Z,100543.56
2022-11-19T05:33:12.262Z,100552.38
2022-11-19T05:35:38.881Z,100564.13
2022-11-19T05:38:06.448Z,100548.88
2022-11-19T05:40:33.019Z,100558.94
2022-11-19T05:43:04.522Z,100564.50
2022-11-19T05:45:31.247Z,100554.81
2022-11-19T05:47:57.925Z,100554.94
2022-11-19T05:50:24.648Z,100557.56
2022-11-19T05:52:51.505Z,100568.38
2022-11-19T05:55:18.342Z,100561.03
2022-11-19T05:57:44.902Z,100564.94
2022-11-19T06:00:12.211Z,100558.09
2022-11-19T06:02:41.730Z,100558.22
2022-11-19T06:05:08.940Z,100559.94
2022-11-19T06:07:35.645Z,100569.72
2022-11-19T06:10:02.999Z,100566.59
2022-11-19T06:12:30.412Z,100558.56
2022-11-19T06:14:56.955Z,100569.41
2022-11-19T06:17:23.555Z,100561.06
2022-11-19T06:19:50.090Z,100571.69
2022-11-19T06:22:16.806Z,100572.38
2022-11-19T06:24:43.722Z,100571.88
2022-11-19T06:27:10.279Z,100583.69
2022-11-19T06:29:36.855Z,100586.47
2022-11-19T06:32:04.204Z,100582.88
2022-11-19T06:34:30.754Z,100582.50
2022-11-19T06:36:58.690Z,100576.81
2022-11-19T06:39:25.271Z,100585.78
2022-11-19T06:41:51.884Z,100583.38
2022-11-19T06:44:18.673Z,100587.47
2022-11-19T06:46:45.694Z,100589.97
2022-11-19T06:49:16.836Z,100590.78
2022-11-19T06:51:46.447Z,100580.53
2022-11-19T06:54:13.013Z,100594.16
2022-11-19T06:56:39.531Z,100594.69
2022-11-19T06:59:06.072Z,100599.84
2022-11-19T07:01:32.678Z,100598.72
2022-11-19T07:03:59.677Z,100598.81
2022-11-19T07:06:27.001Z,100604.06
2022-11-19T07:08:53.628Z,100601.59
2022-11-19T07:11:26.229Z,100585.09
2022-11-19T07:14:00.097Z,100593.72
2022-11-19T07:16:35.565Z,100595.53
2022-11-19T07:19:05.328Z,100599.09
2022-11-19T07:21:32.453Z,100596.81
2022-11-19T07:24:00.561Z,100598.84
2022-11-19T07:26:27.397Z,100596.56
2022-11-19T07:28:53.980Z,100595.53
2022-11-19T07:31:20.649Z,100591.75
2022-11-19T07:33:47.287Z,100599.94
2022-11-19T07:36:18.092Z,100613.56
2022-11-19T07:38:46.107Z,100603.53
2022-11-19T07:41:31.197Z,100610.94
2022-11-19T07:43:57.938Z,100609.41
2022-11-19T07:46:24.481Z,100613.66
2022-11-19T07:48:55.023Z,100613.44
2022-11-19T07:51:22.529Z,100629.22
2022-11-19T07:53:49.777Z,100626.09
2022-11-19T07:56:17.121Z,100632.31
2022-11-19T07:58:43.727Z,100634.94
2022-11-19T08:01:12.045Z,100635.41
2022-11-19T08:03:38.839Z,100633.59
2022-11-19T08:06:06.283Z,100638.88
2022-11-19T08:08:33.269Z,100637.31
2022-11-19T08:11:06.003Z,100631.47
2022-11-19T08:13:32.936Z,100633.59
2022-11-19T08:16:08.595Z,100635.19
2022-11-19T08:18:35.804Z,100635.66
2022-11-19T08:21:04.874Z,100633.25
2022-11-19T08:23:32.914Z,100634.00
2022-11-19T08:26:00.386Z,100628.88
2022-11-19T08:28:28.352Z,100626.03
2022-11-19T08:30:55.125Z,100630.16
2022-11-19T08:33:21.754Z,100638.88
2022-11-19T08:35:48.784Z,100636.31
2022-11-19T08:38:15.351Z,100642.22
2022-11-19T08:40:41.955Z,100637.25
2022-11-19T08:43:08.482Z,100639.34
2022-11-19T08:45:37.684Z,100639.41
2022-11-19T08:48:07.018Z,100632.22
2022-11-19T08:50:33.737Z,100635.19
2022-11-19T08:53:02.833Z,100631.09
2022-11-19T08:55:30.898Z,100638.63
2022-11-19T08:58:04.573Z,100639.88
2022-11-19T09:00:33.179Z,100642.56
2022-11-19T09:02:59.848Z,100648.28
2022-11-19T09:05:26.920Z,100654.16
2022-11-19T09:07:56.321Z,100650.75
2022-11-19T09:10:22.861Z,100647.63
2022-11-19T09:12:49.505Z,100649.66
2022-11-19T09:15:16.236Z,100646.72
2022-11-19T09:17:46.769Z,100654.47
2022-11-19T09:20:14.339Z,100656.91
2022-11-19T09:22:40.895Z,100657.59
2022-11-19T09:25:08.905Z,100652.72
2022-11-19T09:27:36.983Z,100644.50
2022-11-19T09:30:07.826Z,100648.72
2022-11-19T09:32:34.959Z,100647.84
2022-11-19T09:35:01.780Z,100635.34
2022-11-19T09:37:31.363Z,100648.06
2022-11-19T09:39:57.938Z,100643.28
2022-11-19T09:42:51.646Z,100649.41
2022-11-19T09:45:22.239Z,100658.91
2022-11-19T09:48:09.545Z,100660.59
2022-11-19T09:50:53.487Z,100664.16
2022-11-19T09:53:23.290Z,100665.84
2022-11-19T09:55:53.002Z,100660.81
2022-11-19T09:58:46.606Z,100663.28
2022-11-19T10:01:15.684Z,100659.34
2022-11-19T10:03:47.149Z,100656.13
2022-11-19T10:06:29.586Z,100649.75
2022-11-19T10:09:12.672Z,100657.03
2022-11-19T10:11:39.973Z,100662.34
2022-11-19T10:14:15.986Z,100651.19
2022-11-19T10:16:58.234Z,100656.13
2022-11-19T10:19:30.869Z,100657.44
2022-11-19T10:22:10.405Z,100653.13
2022-11-19T10:24:49.762Z,100638.16
2022-11-19T10:27:22.617Z,100639.41
2022-11-19T10:29:54.706Z,100637.72
2022-11-19T10:32:27.762Z,100636.78
2022-11-19T10:35:00.237Z,100629.97
2022-11-19T10:37:34.245Z,100617.56
2022-11-19T10:40:12.042Z,100623.88
2022-11-19T10:42:43.599Z,100619.41
2022-11-19T10:45:16.439Z,100612.34
2022-11-19T10:48:08.889Z,100610.75
2022-11-19T10:50:36.701Z,100599.72
2022-11-19T10:53:33.356Z,100606.38
2022-11-19T10:56:04.282Z,100598.00
2022-11-19T10:58:30.777Z,100600.91
2022-11-19T11:01:00.797Z,100591.19
2022-11-19T11:03:34.044Z,100590.41
2022-11-19T11:06:05.273Z,100590.88
2022-11-19T11:08:51.690Z,100579.03
2022-11-19T11:11:24.788Z,100583.53
2022-11-19T11:14:10.246Z,100590.22
2022-11-19T11:16:46.025Z,100579.88
2022-11-19T11:19:19.138Z,100567.91
2022-11-19T11:21:51.376Z,100560.03
2022-11-19T11:24:19.261Z,100553.81
2022-11-19T11:26:45.895Z,100550.63
2022-11-19T11:29:12.377Z,100546.94
2022-11-19T11:31:42.646Z,100547.03
2022-11-19T11:34:27.553Z,100545.94
2022-11-19T11:36:56.351Z,100538.47
2022-11-19T11:39:27.973Z,100541.88
2022-11-19T11:42:17.646Z,100538.94
2022-11-19T11:44:53.396Z,100533.41
2022-11-19T11:47:24.602Z,100529.03
2022-11-19T11:50:07.940Z,100526.75
2022-11-19T11:52:43.701Z,100508.56
2022-11-19T11:55:31.803Z,100517.78
2022-11-19T11:58:05.858Z,100511.00
2022-11-19T12:00:45.621Z,100515.66
2022-11-19T12:03:18.807Z,100518.88
2022-11-19T12:06:06.623Z,100518.59
2022-11-19T12:08:58.238Z,100520.88
2022-11-19T12:11:54.131Z,100513.25
2022-11-19T12:14:44.431Z,100506.63
2022-11-19T12:17:32.847Z,100509.16
2022-11-19T12:20:02.204Z,100514.56
2022-11-19T12:22:37.878Z,100503.53
2022-11-19T12:25:21.822Z,100507.16
2022-11-19T12:27:57.140Z,100505.72
2022-11-19T12:30:30.780Z,100502.00
2022-11-19T12:33:25.001Z,100491.50
2022-11-19T12:36:17.493Z,100497.47
2022-11-19T12:39:04.562Z,100495.94
2022-11-19T12:41:54.937Z,100490.16
2022-11-19T12:44:42.760Z,100491.22
2022-11-19T12:47:42.146Z,100492.56
2022-11-19T12:50:15.552Z,100485.09
2022-11-19T12:53:03.531Z,100483.09
2022-11-19T12:55:45.562Z,100491.84
2022-11-19T12:58:36.063Z,100479.13
2022-11-19T13:05:52.933Z,100481.69
2022-11-19T14:46:50.026Z,100431.22
2022-11-19T14:49:31.776Z,100430.84
2022-11-19T14:51:59.111Z,100429.88
2022-11-19T14:54:37.938Z,100438.09
2022-11-19T14:57:30.141Z,100436.53
2022-11-19T15:00:01.505Z,100445.13
2022-11-19T15:02:45.568Z,100434.91
2022-11-19T15:05:20.347Z,100440.41
2022-11-19T15:08:11.829Z,100439.25
2022-11-19T15:11:13.896Z,100445.66
2022-11-19T15:13:48.636Z,100435.56
2022-11-19T15:16:25.986Z,100442.00
2022-11-19T15:19:25.793Z,100430.44
2022-11-19T15:22:16.975Z,100428.88
2022-11-19T15:24:56.586Z,100421.84
2022-11-19T15:27:49.737Z,100417.63
2022-11-19T15:30:19.523Z,100423.50
2022-11-19T15:33:03.420Z,100418.84
2022-11-19T15:35:35.147Z,100420.41
2022-11-19T15:38:21.554Z,100427.28
2022-11-19T15:40:51.298Z,100423.88
2022-11-19T15:43:27.005Z,100424.53
2022-11-19T15:46:17.885Z,100423.47
2022-11-19T15:49:10.746Z,100421.16
2022-11-19T15:51:59.466Z,100416.25
2022-11-19T15:54:31.291Z,100426.31
2022-11-19T15:57:06.577Z,100415.78
2022-11-19T15:59:37.749Z,100411.78
2022-11-19T16:02:14.151Z,100415.34
2022-11-19T16:04:40.876Z,100406.19
2022-11-19T16:07:09.657Z,100406.00
2022-11-19T16:09:37.069Z,100407.44
2022-11-19T16:12:23.211Z,100399.50
2022-11-19T16:15:10.655Z,100398.41
2022-11-19T16:17:44.446Z,100389.75
2022-11-19T16:20:11.301Z,100396.63
2022-11-19T16:23:04.616Z,100390.16
2022-11-19T16:25:35.455Z,100383.41
2022-11-19T16:28:10.051Z,100391.38
2022-11-19T16:30:46.309Z,100385.94
2022-11-19T16:33:16.999Z,100386.69
2022-11-19T16:35:46.087Z,100381.00
2022-11-19T16:38:23.404Z,100380.63
2022-11-19T16:41:09.095Z,100385.09
2022-11-19T16:43:36.474Z,100384.13
2022-11-19T16:46:05.173Z,100385.94
2022-11-19T16:48:50.113Z,100376.28
2022-11-19T16:51:31.893Z,100377.63
2022-11-19T16:53:59.358Z,100379.50
2022-11-19T16:56:33.689Z,100379.63
2022-11-19T16:59:04.273Z,100372.63
2022-11-19T17:01:32.112Z,100376.03
2022-11-19T17:04:03.569Z,100370.97
2022-11-19T17:06:33.043Z,100380.00
2022-11-19T17:09:00.904Z,100383.94
2022-11-19T17:12:06.835Z,100383.59
2022-11-19T17:14:39.475Z,100384.53
2022-11-19T17:17:39.519Z,100387.19
2022-11-19T17:20:35.799Z,100384.03
2022-11-19T17:23:10.102Z,100384.88
2022-11-19T17:25:45.707Z,100384.03
2022-11-19T17:28:19.652Z,100380.44
2022-11-19T17:30:49.416Z,100389.34
2022-11-19T17:33:18.201Z,100392.97
2022-11-19T17:35:47.312Z,100389.34
2022-11-19T17:38:17.355Z,100393.44
2022-11-19T17:40:53.354Z,100385.47
2022-11-19T17:43:59.692Z,100388.59
2022-11-19T17:46:28.785Z,100382.91
2022-11-19T17:48:56.864Z,100385.91
2022-11-19T17:51:25.419Z,100390.38
2022-11-19T17:53:53.521Z,100382.88
2022-11-19T17:56:29.590Z,100381.31
2022-11-19T17:58:56.574Z,100379.09
2022-11-19T18:01:23.278Z,100386.84
2022-11-19T18:03:49.948Z,100383.47
2022-11-19T18:06:18.114Z,100381.56
2022-11-19T18:08:45.942Z,100386.63
2022-11-19T18:11:18.891Z,100383.47
2022-11-19T18:13:47.720Z,100379.34
2022-11-19T18:16:26.218Z,100384.78
2022-11-19T18:18:54.334Z,100386.53
2022-11-19T18:21:22.823Z,100380.16
2022-11-19T18:23:51.879Z,100388.34
2022-11-19T18:26:22.300Z,100388.53
2022-11-19T18:28:49.410Z,100383.13
2022-11-19T18:31:22.940Z,100382.22
2022-11-19T18:33:50.233Z,100385.50
2022-11-19T18:36:17.602Z,100381.53
2022-11-19T18:38:44.955Z,100379.63
2022-11-19T18:41:13.260Z,100375.22
2022-11-19T18:43:59.598Z,100380.94
2022-11-19T18:46:26.712Z,100377.78
2022-11-19T18:48:53.729Z,100376.75
2022-11-19T18:51:21.409Z,100384.78
2022-11-19T18:53:48.611Z,100375.47
2022-11-19T18:56:16.953Z,100374.84
2022-11-19T18:58:43.911Z,100379.19
2022-11-19T19:01:11.223Z,100376.53
2022-11-19T19:03:38.328Z,100377.50
2022-11-19T19:06:07.655Z,100374.84
2022-11-19T19:08:35.163Z,100378.66
2022-11-19T19:11:23.495Z,100381.00
2022-11-19T19:13:50.659Z,100375.59
2022-11-19T19:16:17.432Z,100379.13
2022-11-19T19:18:44.213Z,100374.75
2022-11-19T19:21:21.678Z,100379.13
2022-11-19T19:23:49.392Z,100378.63
2022-11-19T19:26:18.152Z,100373.84
2022-11-19T19:28:51.945Z,100378.63
2022-11-19T19:31:22.888Z,100380.88
2022-11-19T19:33:50.148Z,100382.34
2022-11-19T19:36:18.165Z,100383.38
2022-11-19T19:38:45.032Z,100378.53
2022-11-19T19:41:15.547Z,100379.69
2022-11-19T19:43:42.291Z,100385.31
2022-11-19T19:46:15.985Z,100389.31
2022-11-19T19:48:43.893Z,100389.41
2022-11-19T19:51:13.244Z,100386.97
2022-11-19T19:53:43.585Z,100387.63
2022-11-19T19:56:15.834Z,100386.75
2022-11-19T19:58:46.299Z,100380.75
2022-11-19T20:01:21.829Z,100379.88
2022-11-19T20:03:54.071Z,100379.78
2022-11-19T20:06:23.485Z,100380.19
2022-11-19T20:08:50.777Z,100386.13
2022-11-19T20:11:24.666Z,100378.94
2022-11-19T20:13:53.774Z,100388.03
2022-11-19T20:16:25.968Z,100392.28
2022-11-19T20:18:53.507Z,100384.56
2022-11-19T20:21:28.223Z,100385.41
2022-11-19T20:23:55.496Z,100386.38
2022-11-19T20:26:24.929Z,100378.31
2022-11-19T20:28:57.145Z,100382.13
2022-11-19T20:31:24.951Z,100383.19
2022-11-19T20:33:55.322Z,100379.59
2022-11-19T20:36:24.436Z,100373.03
2022-11-19T20:38:51.880Z,100376.72
2022-11-19T20:41:39.940Z,100373.47
2022-11-19T20:44:22.716Z,100369.31
2022-11-19T20:46:58.427Z,100368.72
2022-11-19T20:49:27.693Z,100367.13
2022-11-19T20:51:59.111Z,100367.13
2022-11-19T20:54:27.383Z,100365.63
2022-11-19T20:56:58.048Z,100369.25
2022-11-19T20:59:26.512Z,100364.78
2022-11-19T21:01:55.311Z,100361.19
2022-11-19T21:04:24.934Z,100347.75
2022-11-19T21:06:55.100Z,100353.69
2022-11-19T21:09:22.469Z,100354.22
2022-11-19T21:11:49.820Z,100347.03
2022-11-19T21:14:16.766Z,100349.44
2022-11-19T21:16:43.677Z,100346.06
2022-11-19T21:19:11.329Z,100350.41
2022-11-19T21:21:38.526Z,100338.75
2022-11-19T21:24:05.607Z,100343.94
2022-11-19T21:26:32.905Z,100338.22
2022-11-19T21:29:00.376Z,100335.13
2022-11-19T21:31:40.510Z,100331.09
2022-11-19T21:34:09.241Z,100336.16
2022-11-19T21:36:36.739Z,100333.72
2022-11-19T21:39:07.450Z,100329.03
2022-11-19T21:41:34.727Z,100334.41
2022-11-19T21:44:02.649Z,100334.91
2022-11-19T21:46:29.628Z,100339.78
2022-11-19T21:48:56.630Z,100333.66
2022-11-19T21:51:25.234Z,100336.09
2022-11-19T21:53:57.108Z,100321.75
2022-11-19T21:56:25.135Z,100328.25
2022-11-19T21:58:54.686Z,100327.56
2022-11-19T22:01:21.702Z,100322.44
2022-11-19T22:03:49.177Z,100318.38
2022-11-19T22:06:16.191Z,100318.78
2022-11-19T22:08:45.135Z,100325.91
2022-11-19T22:11:31.068Z,100320.97
2022-11-19T22:14:06.667Z,100328.00
2022-11-19T22:16:36.811Z,100324.66
2022-11-19T22:19:05.679Z,100318.78
2022-11-19T22:21:32.964Z,100312.75
2022-11-19T22:24:00.588Z,100314.66
2022-11-19T22:26:27.896Z,100305.19
2022-11-19T22:28:55.420Z,100311.75
2022-11-19T22:31:23.806Z,100306.34
2022-11-19T22:33:52.988Z,100328.63
2022-11-19T22:36:21.748Z,100313.06
2022-11-19T22:38:52.519Z,100305.78
2022-11-19T22:41:23.035Z,100309.63
2022-11-19T22:43:50.652Z,100315.69
2022-11-19T22:46:18.579Z,100310.41
2022-11-19T22:48:45.761Z,100321.16
2022-11-19T22:51:17.208Z,100318.31
2022-11-19T22:53:49.921Z,100323.16
2022-11-19T22:56:25.758Z,100322.59
2022-11-19T22:58:54.603Z,100308.47
2022-11-19T23:01:24.265Z,100314.84
2022-11-19T23:03:52.210Z,100321.78
2022-11-19T23:06:19.826Z,100316.63
2022-11-19T23:08:47.241Z,100314.47
2022-11-19T23:11:15.905Z,100310.72
2022-11-19T23:13:44.513Z,100319.41
2022-11-19T23:16:17.379Z,100314.06
2022-11-19T23:18:52.816Z,100307.09
2022-11-19T23:21:28.019Z,100307.09
2022-11-19T23:23:56.264Z,100311.69
2022-11-19T23:26:25.817Z,100294.81
2022-11-19T23:28:58.504Z,100296.50
2022-11-19T23:31:28.507Z,100291.47
2022-11-19T23:33:59.336Z,100294.38
2022-11-19T23:36:29.353Z,100300.16
2022-11-19T23:38:59.987Z,100298.09
2022-11-19T23:41:27.735Z,100292.91
2022-11-19T23:43:56.354Z,100289.19
2022-11-19T23:46:29.209Z,100283.63
2022-11-19T23:48:57.467Z,100285.19
2022-11-19T23:51:29.398Z,100288.34
2022-11-19T23:53:56.879Z,100286.44
2022-11-19T23:56:34.161Z,100293.75
2022-11-19T23:59:09.683Z,100291.38
